Time;durP1;ratioP1;P1;durP2;ratioP2;P2;SDS_P1;SDS_P2;PMS_P1;PMS_P2;Temp;Humidity;BMP_temperature;BMP_pressure;BME280_temperature;BME280_humidity;BME280_pressure;Samples;Min_cycle;Max_cycle;Signal;HPM_P1;HPM_P2
2022/01/27 00:06:54;;;;;;;30.30;16.43;;;6.00;99.90;;;;;;5084593;27;20205;-61
2022/01/27 00:09:40;;;;;;;34.90;18.23;;;6.10;99.90;;;;;;5095018;28;20191;-61
2022/01/27 00:12:07;;;;;;;33.70;18.30;;;5.90;99.90;;;;;;5107193;28;20185;-62
2022/01/27 00:14:33;;;;;;;36.57;18.10;;;6.00;99.90;;;;;;5109859;28;20209;-62
2022/01/27 00:17:02;;;;;;;36.03;17.00;;;5.90;99.90;;;;;;5094124;28;20196;-62
2022/01/27 00:19:28;;;;;;;36.70;17.80;;;5.90;99.90;;;;;;5090340;28;20177;-62
2022/01/27 00:21:54;;;;;;;37.33;19.03;;;5.90;99.90;;;;;;5086914;28;20229;-61
2022/01/27 00:24:20;;;;;;;38.63;18.57;;;6.00;99.90;;;;;;5093394;28;20185;-63
2022/01/27 00:26:46;;;;;;;44.17;20.37;;;6.00;99.90;;;;;;5092774;28;20185;-62
2022/01/27 00:29:12;;;;;;;34.33;17.23;;;6.00;99.90;;;;;;5094183;28;20207;-61
2022/01/27 00:31:38;;;;;;;28.70;16.57;;;6.00;99.90;;;;;;5100671;28;20653;-63
2022/01/27 00:34:04;;;;;;;36.90;17.97;;;5.80;99.90;;;;;;5086043;28;20208;-62
2022/01/27 00:36:33;;;;;;;42.27;19.07;;;5.80;99.90;;;;;;5085578;28;20185;-61
2022/01/27 00:38:59;;;;;;;41.23;19.30;;;5.90;99.90;;;;;;5092587;28;20188;-64
2022/01/27 00:41:26;;;;;;;40.30;19.03;;;6.00;99.90;;;;;;5093792;28;20189;-65
2022/01/27 00:43:52;;;;;;;42.53;16.33;;;5.90;99.90;;;;;;5126182;27;20660;-62
2022/01/27 00:46:19;;;;;;;37.87;17.43;;;5.80;99.90;;;;;;5093824;28;20177;-61
2022/01/27 00:48:47;;;;;;;33.97;15.60;;;5.80;99.90;;;;;;5126901;27;20188;-64
2022/01/27 00:51:20;;;;;;;37.90;16.87;;;5.70;99.90;;;;;;5090697;28;20250;-62
2022/01/27 00:53:50;;;;;;;40.37;18.40;;;5.80;99.90;;;;;;5074134;28;20212;-62
2022/01/27 00:56:24;;;;;;;33.03;16.40;;;5.70;99.90;;;;;;5079726;28;20228;-61
2022/01/27 00:59:23;;;;;;;36.30;15.83;;;5.80;99.90;;;;;;5064245;28;20193;-61
2022/01/27 01:02:08;;;;;;;30.47;15.20;;;5.90;99.90;;;;;;5092235;28;20287;-61
2022/01/27 01:04:37;;;;;;;31.73;17.70;;;5.90;99.90;;;;;;5071802;28;20169;-62
2022/01/27 01:07:06;;;;;;;40.33;19.33;;;6.00;99.90;;;;;;5075031;28;20188;-61
2022/01/27 01:15:18;;;;;;;33.93;17.07;;;6.00;99.90;;;;;;5090323;28;20205;-63
2022/01/27 01:17:51;;;;;;;33.13;15.40;;;6.00;99.90;;;;;;5088778;28;20205;-61
2022/01/27 01:31:15;;;;;;;31.80;15.40;;;6.00;99.90;;;;;;5084981;28;20561;-61
2022/01/27 01:33:43;;;;;;;36.07;17.60;;;6.10;99.90;;;;;;5093695;28;20612;-62
2022/01/27 01:36:26;;;;;;;33.90;15.77;;;5.90;99.90;;;;;;5093044;28;20254;-61
2022/01/27 01:38:51;;;;;;;43.00;17.10;;;6.00;99.90;;;;;;5092063;28;20273;-62
2022/01/27 01:41:17;;;;;;;37.50;18.03;;;5.90;99.90;;;;;;5093030;28;20263;-62
2022/01/27 01:43:43;;;;;;;30.00;16.67;;;5.80;99.90;;;;;;5125675;27;20279;-62
2022/01/27 01:46:09;;;;;;;33.63;16.83;;;5.70;99.90;;;;;;5125468;27;20188;-61
2022/01/27 01:48:34;;;;;;;40.17;17.57;;;5.80;99.90;;;;;;5092188;28;20192;-62
2022/01/27 01:51:03;;;;;;;39.07;17.97;;;5.70;99.90;;;;;;5092297;28;20185;-62
2022/01/27 01:53:29;;;;;;;29.97;15.23;;;5.80;99.90;;;;;;5091053;28;20573;-61
2022/01/27 01:55:55;;;;;;;34.50;16.13;;;6.00;99.90;;;;;;5108557;28;20184;-62
2022/01/27 01:58:20;;;;;;;38.97;16.67;;;6.00;99.90;;;;;;5092662;28;20191;-61
2022/01/27 02:00:46;;;;;;;40.40;17.77;;;6.20;99.90;;;;;;5114040;27;20279;-62
2022/01/27 02:03:12;;;;;;;35.37;16.53;;;6.10;99.90;;;;;;5115757;27;20737;-61
2022/01/27 02:05:45;;;;;;;30.40;15.67;;;6.10;99.90;;;;;;5091682;28;20184;-62
2022/01/27 02:19:26;;;;;;;34.77;16.07;;;6.00;99.90;;;;;;5091561;28;20246;-62
2022/01/27 02:22:04;;;;;;;33.93;16.50;;;6.10;99.90;;;;;;5082603;28;20255;-62
2022/01/27 02:24:32;;;;;;;38.30;15.80;;;6.10;99.90;;;;;;5087085;28;20605;-62
2022/01/27 02:26:59;;;;;;;33.33;16.40;;;6.10;99.90;;;;;;5074046;28;20174;-61
2022/01/27 02:29:26;;;;;;;34.00;14.80;;;6.20;99.90;;;;;;5084967;28;20629;-61
2022/01/27 02:31:54;;;;;;;28.50;14.10;;;6.30;99.90;;;;;;5115838;28;20203;-61
2022/01/27 02:34:20;;;;;;;28.83;14.10;;;6.30;99.90;;;;;;5081811;28;20203;-61
2022/01/27 02:36:45;;;;;;;34.20;16.30;;;6.30;99.90;;;;;;5092267;28;20181;-62
2022/01/27 02:39:11;;;;;;;35.63;15.70;;;6.30;99.90;;;;;;5091068;28;20278;-61
2022/01/27 02:41:44;;;;;;;28.80;15.33;;;6.30;99.90;;;;;;5090583;28;20184;-61
2022/01/27 02:44:19;;;;;;;36.00;17.87;;;6.30;99.90;;;;;;5092592;28;20230;-61
2022/01/27 02:46:45;;;;;;;31.80;14.20;;;6.20;99.90;;;;;;5092524;28;20184;-61
2022/01/27 02:49:11;;;;;;;32.90;15.63;;;6.20;99.90;;;;;;5090445;28;20657;-61
2022/01/27 02:51:37;;;;;;;38.10;15.60;;;6.10;99.90;;;;;;5125346;28;20181;-61
2022/01/27 02:54:04;;;;;;;27.43;13.20;;;6.20;99.90;;;;;;5090310;28;20212;-61
2022/01/27 02:56:30;;;;;;;31.13;15.40;;;6.20;99.90;;;;;;5125301;28;20272;-61
2022/01/27 02:58:55;;;;;;;34.33;14.87;;;6.30;99.90;;;;;;5125337;28;20268;-61
2022/01/27 03:01:22;;;;;;;34.07;15.03;;;6.30;99.90;;;;;;5092039;28;20185;-61
2022/01/27 03:03:47;;;;;;;36.37;16.30;;;6.20;99.90;;;;;;5091574;28;20613;-61
2022/01/27 03:06:13;;;;;;;37.13;16.13;;;6.20;99.90;;;;;;5124666;28;20268;-61
2022/01/27 03:08:40;;;;;;;32.53;15.53;;;6.00;99.90;;;;;;5090263;28;20188;-61
2022/01/27 03:11:17;;;;;;;33.67;14.87;;;6.10;99.90;;;;;;5091030;28;20212;-63
2022/01/27 03:13:43;;;;;;;39.10;15.63;;;6.20;99.90;;;;;;5081775;28;20237;-61
2022/01/27 03:16:09;;;;;;;35.13;16.53;;;6.20;99.90;;;;;;5095705;28;20185;-61
2022/01/27 03:18:35;;;;;;;34.53;15.27;;;6.30;99.90;;;;;;5094652;28;20176;-61
2022/01/27 03:21:03;;;;;;;37.37;17.07;;;6.30;99.90;;;;;;5094161;28;20185;-61
2022/01/27 03:23:29;;;;;;;34.90;15.83;;;6.20;99.90;;;;;;5095531;28;20671;-61
2022/01/27 03:25:54;;;;;;;36.37;17.30;;;6.10;99.90;;;;;;5095549;28;20264;-60
2022/01/27 03:28:24;;;;;;;35.73;16.10;;;6.00;99.90;;;;;;5085508;28;20185;-61
2022/01/27 03:30:50;;;;;;;38.53;16.47;;;6.10;99.90;;;;;;5098527;28;20189;-61
2022/01/27 03:33:16;;;;;;;44.30;17.53;;;6.20;99.90;;;;;;5080291;28;20196;-61
2022/01/27 03:35:42;;;;;;;35.13;15.93;;;6.10;99.90;;;;;;5103883;28;20221;-61
2022/01/27 03:38:07;;;;;;;36.53;17.00;;;6.10;99.90;;;;;;5091888;28;20654;-61
2022/01/27 03:40:33;;;;;;;40.23;16.77;;;6.10;99.90;;;;;;5110431;28;20192;-61
2022/01/27 03:43:08;;;;;;;32.33;14.63;;;6.10;99.90;;;;;;5093857;28;20263;-61
2022/01/27 03:45:34;;;;;;;39.57;16.07;;;6.10;99.90;;;;;;5110884;28;20198;-61
2022/01/27 03:48:00;;;;;;;35.90;14.73;;;5.80;99.90;;;;;;5095634;28;20176;-61
2022/01/27 03:50:26;;;;;;;42.30;15.57;;;6.00;99.90;;;;;;5126617;27;20185;-61
2022/01/27 03:52:52;;;;;;;42.07;16.63;;;6.20;99.90;;;;;;5128285;27;20287;-61
2022/01/27 03:55:17;;;;;;;36.80;16.53;;;6.20;99.90;;;;;;5095018;28;20208;-61
2022/01/27 03:57:43;;;;;;;37.70;17.33;;;6.10;99.90;;;;;;5126588;27;20193;-61
2022/01/27 04:00:09;;;;;;;48.17;17.63;;;6.00;99.90;;;;;;5104100;28;20185;-61
2022/01/27 04:02:38;;;;;;;39.50;16.07;;;5.70;99.90;;;;;;5093842;28;20185;-61
2022/01/27 04:05:04;;;;;;;45.70;18.43;;;5.80;99.90;;;;;;5095056;28;20188;-61
2022/01/27 04:07:30;;;;;;;38.30;17.00;;;5.90;99.90;;;;;;5094685;28;20180;-61
2022/01/27 04:09:56;;;;;;;41.50;19.17;;;5.80;99.90;;;;;;5079014;28;20181;-61
2022/01/27 04:12:21;;;;;;;44.50;17.97;;;5.70;99.90;;;;;;5122127;27;20220;-61
2022/01/27 04:14:47;;;;;;;40.83;19.60;;;5.70;99.90;;;;;;5127631;27;20616;-61
2022/01/27 04:17:13;;;;;;;37.33;18.07;;;5.80;99.90;;;;;;5083760;28;20189;-61
2022/01/27 04:19:38;;;;;;;39.47;18.87;;;5.70;99.90;;;;;;5086187;28;20197;-61
2022/01/27 04:22:04;;;;;;;40.40;17.03;;;5.60;99.90;;;;;;5111162;28;20545;-61
2022/01/27 04:24:30;;;;;;;42.70;19.17;;;5.60;99.90;;;;;;5093755;28;20246;-61
2022/01/27 04:27:05;;;;;;;46.93;19.70;;;5.60;99.90;;;;;;5092890;28;20177;-61
2022/01/27 04:29:35;;;;;;;39.23;17.23;;;5.60;99.90;;;;;;5093277;28;20601;-61
2022/01/27 04:32:01;;;;;;;36.83;18.43;;;5.60;99.90;;;;;;5127133;27;20563;-62
2022/01/27 04:34:28;;;;;;;39.53;19.13;;;5.60;99.90;;;;;;5108288;28;20212;-61
2022/01/27 04:36:56;;;;;;;34.10;16.27;;;5.60;99.90;;;;;;5094067;28;20193;-61
2022/01/27 04:39:30;;;;;;;52.93;21.23;;;5.50;99.90;;;;;;5092955;28;20184;-62
2022/01/27 04:42:04;;;;;;;41.40;19.63;;;5.60;99.90;;;;;;5124414;27;20258;-65
2022/01/27 04:44:39;;;;;;;42.20;18.07;;;5.70;99.90;;;;;;5077645;28;20189;-62
2022/01/27 04:47:11;;;;;;;45.47;19.97;;;5.60;99.90;;;;;;5092753;28;20161;-62
2022/01/27 04:49:37;;;;;;;43.40;19.83;;;5.70;99.90;;;;;;5093789;28;20633;-62
2022/01/27 04:52:04;;;;;;;46.43;21.40;;;5.60;99.90;;;;;;5084767;28;20185;-62
2022/01/27 04:54:48;;;;;;;47.10;19.40;;;5.40;99.90;;;;;;5083714;28;20208;-62
2022/01/27 04:57:14;;;;;;;45.77;19.33;;;5.40;99.90;;;;;;5093785;28;20196;-61
2022/01/27 04:59:42;;;;;;;53.97;18.53;;;5.50;99.90;;;;;;5092271;28;20181;-62
2022/01/27 05:02:17;;;;;;;50.47;19.03;;;5.50;99.90;;;;;;5126561;27;20702;-62
2022/01/27 05:04:46;;;;;;;44.07;20.17;;;5.50;99.90;;;;;;5110777;27;20531;-65
2022/01/27 05:07:11;;;;;;;48.57;23.43;;;5.40;99.90;;;;;;5093190;28;20181;-61
2022/01/27 05:09:38;;;;;;;43.87;19.57;;;5.40;99.90;;;;;;5075078;28;20251;-61
2022/01/27 05:12:16;;;;;;;53.30;20.53;;;5.40;99.90;;;;;;5092998;28;20183;-61
2022/01/27 05:14:42;;;;;;;56.53;23.47;;;5.40;99.90;;;;;;5081072;28;20242;-61
2022/01/27 05:17:07;;;;;;;48.17;21.60;;;5.30;99.90;;;;;;5108029;28;20208;-65
2022/01/27 05:19:33;;;;;;;56.67;21.30;;;5.30;99.90;;;;;;5081009;28;20279;-62
2022/01/27 05:21:59;;;;;;;48.60;20.67;;;5.20;99.90;;;;;;5092712;28;20189;-61
2022/01/27 05:24:24;;;;;;;55.53;23.53;;;5.30;99.90;;;;;;5093516;28;20189;-61
2022/01/27 05:26:50;;;;;;;53.37;22.83;;;5.30;99.90;;;;;;5085978;28;20536;-61
2022/01/27 05:29:16;;;;;;;48.63;24.40;;;5.30;99.90;;;;;;5083456;28;20189;-62
2022/01/27 05:31:43;;;;;;;55.83;20.93;;;5.20;99.90;;;;;;5092063;28;20195;-62
2022/01/27 05:34:09;;;;;;;45.57;22.87;;;5.20;99.90;;;;;;5126471;27;20208;-61
2022/01/27 05:36:35;;;;;;;57.33;22.40;;;5.30;99.90;;;;;;5092447;28;20212;-61
2022/01/27 05:39:02;;;;;;;49.13;21.13;;;5.20;99.90;;;;;;5091314;28;20189;-62
2022/01/27 05:41:28;;;;;;;48.10;19.97;;;5.30;99.90;;;;;;5103725;28;20180;-61
2022/01/27 05:43:54;;;;;;;50.03;22.40;;;5.30;99.90;;;;;;5108665;28;20207;-61
2022/01/27 05:46:19;;;;;;;47.87;21.03;;;5.30;99.90;;;;;;5125606;27;20176;-61
2022/01/27 05:48:45;;;;;;;53.30;22.70;;;5.20;99.90;;;;;;5093190;28;20177;-66
2022/01/27 05:51:12;;;;;;;54.03;22.40;;;5.20;99.90;;;;;;5093022;28;20271;-62
2022/01/27 05:53:39;;;;;;;50.70;23.07;;;5.10;99.90;;;;;;5073361;28;20292;-61
2022/01/27 05:56:05;;;;;;;53.70;19.97;;;5.20;99.90;;;;;;5109531;28;20202;-61
2022/01/27 05:58:31;;;;;;;57.20;22.70;;;5.30;99.90;;;;;;5088786;28;20268;-61
2022/01/27 06:00:56;;;;;;;46.77;20.50;;;5.40;99.90;;;;;;5108019;28;20284;-63
2022/01/27 06:03:22;;;;;;;56.63;23.93;;;5.40;99.90;;;;;;5084033;28;20666;-62
2022/01/27 06:05:48;;;;;;;59.10;23.63;;;5.40;99.90;;;;;;5119399;27;20652;-63
2022/01/27 06:08:13;;;;;;;51.10;23.23;;;5.30;99.90;;;;;;5086936;28;20280;-65
2022/01/27 06:10:39;;;;;;;51.00;22.97;;;5.40;99.90;;;;;;5071495;28;20184;-61
2022/01/27 06:13:05;;;;;;;57.87;23.07;;;5.30;99.90;;;;;;5088438;28;20192;-62
2022/01/27 06:15:30;;;;;;;58.53;23.20;;;5.40;99.90;;;;;;5081720;28;20213;-61
2022/01/27 06:17:58;;;;;;;56.67;22.67;;;5.40;99.90;;;;;;5085588;28;20189;-62
2022/01/27 06:20:24;;;;;;;58.33;24.40;;;5.50;99.90;;;;;;5116429;27;20185;-62
2022/01/27 06:22:54;;;;;;;57.33;22.30;;;5.60;99.90;;;;;;5073867;28;20185;-61
2022/01/27 06:25:20;;;;;;;47.57;23.03;;;5.60;99.90;;;;;;5082578;28;20552;-61
2022/01/27 06:27:46;;;;;;;55.70;23.67;;;5.50;99.90;;;;;;5083752;28;20188;-62
2022/01/27 06:30:12;;;;;;;48.00;22.67;;;5.60;99.90;;;;;;5082753;28;20199;-62
2022/01/27 06:32:38;;;;;;;50.67;20.60;;;5.70;99.90;;;;;;5062736;28;20173;-62
2022/01/27 06:35:04;;;;;;;54.67;25.20;;;5.70;99.90;;;;;;5073273;28;20562;-62
2022/01/27 06:37:31;;;;;;;59.43;23.30;;;5.80;99.90;;;;;;5089291;28;20653;-61
2022/01/27 06:39:57;;;;;;;57.53;22.80;;;5.80;99.90;;;;;;5090531;28;20209;-62
2022/01/27 06:42:23;;;;;;;51.23;23.77;;;5.70;99.90;;;;;;5091057;28;20193;-63
2022/01/27 06:44:49;;;;;;;51.07;20.23;;;5.70;99.90;;;;;;5076986;28;20184;-62
2022/01/27 06:47:15;;;;;;;48.03;21.80;;;5.90;99.90;;;;;;5094404;28;20669;-62
2022/01/27 06:49:40;;;;;;;56.13;22.60;;;6.00;99.90;;;;;;5095238;28;20180;-62
2022/01/27 06:52:07;;;;;;;50.63;22.30;;;5.90;99.90;;;;;;5109620;28;20185;-61
2022/01/27 06:54:33;;;;;;;45.63;21.23;;;6.00;99.90;;;;;;5095370;28;20220;-62
2022/01/27 06:56:59;;;;;;;56.03;25.67;;;6.10;99.90;;;;;;5088785;28;20185;-62
2022/01/27 06:59:25;;;;;;;55.10;22.80;;;6.10;99.90;;;;;;5080930;28;20173;-62
2022/01/27 07:01:50;;;;;;;46.93;22.47;;;6.20;99.90;;;;;;5129582;27;20199;-62
2022/01/27 07:04:16;;;;;;;48.37;20.47;;;6.20;99.90;;;;;;5092872;28;20196;-64
2022/01/27 07:06:42;;;;;;;55.40;23.87;;;6.20;99.90;;;;;;5091309;28;20253;-63
2022/01/27 07:09:07;;;;;;;50.77;21.17;;;6.20;99.90;;;;;;5085876;28;20191;-63
2022/01/27 07:11:33;;;;;;;41.10;20.30;;;6.20;99.90;;;;;;5094907;28;20210;-63
2022/01/27 07:13:59;;;;;;;48.50;21.90;;;6.30;99.90;;;;;;5111587;28;20304;-63
2022/01/27 07:16:24;;;;;;;40.47;20.00;;;6.30;99.90;;;;;;5095130;28;20184;-63
2022/01/27 07:18:52;;;;;;;48.03;22.47;;;6.30;99.90;;;;;;5095011;28;20521;-63
2022/01/27 07:21:19;;;;;;;50.43;23.57;;;6.20;99.90;;;;;;5094311;28;20518;-64
2022/01/27 07:23:45;;;;;;;53.53;22.07;;;6.20;99.90;;;;;;5095485;28;20181;-63
2022/01/27 07:26:11;;;;;;;39.43;20.13;;;6.30;99.90;;;;;;5094187;28;20195;-63
2022/01/27 07:28:37;;;;;;;47.23;23.03;;;6.20;99.90;;;;;;5092985;28;20188;-63
2022/01/27 07:31:03;;;;;;;43.30;18.43;;;6.20;99.90;;;;;;5095892;28;20207;-63
2022/01/27 07:33:29;;;;;;;48.53;20.47;;;6.20;99.90;;;;;;5095196;28;20177;-65
2022/01/27 07:35:55;;;;;;;48.27;21.97;;;6.20;99.90;;;;;;5127753;27;20268;-64
2022/01/27 07:38:23;;;;;;;44.50;21.07;;;6.30;99.90;;;;;;5095342;28;20292;-65
2022/01/27 07:40:49;;;;;;;43.97;20.30;;;6.30;99.90;;;;;;5110321;28;20226;-64
2022/01/27 07:43:15;;;;;;;45.47;21.23;;;6.40;99.90;;;;;;5098175;28;21381;-64
2022/01/27 07:45:41;;;;;;;47.80;21.47;;;6.40;99.90;;;;;;5105520;28;20188;-66
2022/01/27 07:48:07;;;;;;;44.07;19.83;;;6.60;99.90;;;;;;5095135;28;20218;-63
2022/01/27 07:50:33;;;;;;;50.60;21.00;;;6.70;99.90;;;;;;5094954;28;20193;-65
2022/01/27 07:52:59;;;;;;;48.27;22.23;;;6.70;99.90;;;;;;5078141;28;20189;-67
2022/01/27 07:55:26;;;;;;;43.30;20.63;;;6.50;99.90;;;;;;5127498;27;20249;-65
2022/01/27 07:57:51;;;;;;;42.20;19.27;;;6.60;99.90;;;;;;5126506;27;20184;-65
2022/01/27 08:00:17;;;;;;;51.37;22.63;;;6.70;99.90;;;;;;5102225;28;20181;-65
2022/01/27 08:02:45;;;;;;;45.07;19.77;;;6.70;99.90;;;;;;5094644;28;20188;-65
2022/01/27 08:05:11;;;;;;;41.97;21.83;;;6.70;99.90;;;;;;5083542;28;20271;-65
2022/01/27 08:07:37;;;;;;;48.60;21.60;;;6.90;99.90;;;;;;5094580;28;20226;-65
2022/01/27 08:10:03;;;;;;;47.40;20.70;;;6.80;99.90;;;;;;5095050;28;20596;-65
2022/01/27 08:12:28;;;;;;;44.27;20.73;;;6.90;99.90;;;;;;5094649;28;20218;-65
2022/01/27 08:14:54;;;;;;;38.20;20.37;;;6.90;99.90;;;;;;5126951;27;20701;-65
2022/01/27 08:17:20;;;;;;;46.80;22.10;;;7.00;99.90;;;;;;5095056;28;20184;-65
2022/01/27 08:19:45;;;;;;;46.80;21.63;;;7.00;99.90;;;;;;5110780;28;20189;-65
2022/01/27 08:22:11;;;;;;;46.03;21.60;;;7.00;99.90;;;;;;5093699;28;20241;-65
2022/01/27 08:24:38;;;;;;;43.07;20.17;;;7.00;99.90;;;;;;5094681;28;20220;-65
2022/01/27 08:27:06;;;;;;;40.50;21.87;;;7.00;99.90;;;;;;5127198;27;20675;-65
2022/01/27 08:29:43;;;;;;;44.07;22.13;;;7.10;99.90;;;;;;5092759;28;20713;-65
2022/01/27 08:32:15;;;;;;;42.10;20.30;;;7.00;99.90;;;;;;5094512;28;20246;-65
2022/01/27 08:34:42;;;;;;;47.00;20.23;;;7.00;99.90;;;;;;5125586;27;20665;-65
2022/01/27 08:37:09;;;;;;;49.80;20.37;;;7.00;99.90;;;;;;5079938;28;20196;-65
2022/01/27 08:39:36;;;;;;;48.33;21.37;;;7.00;99.90;;;;;;5089547;28;20561;-65
2022/01/27 08:42:02;;;;;;;49.63;20.83;;;7.10;99.90;;;;;;5091983;28;20185;-68
2022/01/27 08:44:28;;;;;;;44.77;21.43;;;7.00;99.90;;;;;;5093412;28;20302;-66
2022/01/27 08:46:54;;;;;;;53.00;20.90;;;7.00;99.90;;;;;;5093151;28;20275;-65
2022/01/27 08:49:24;;;;;;;51.00;23.53;;;7.10;99.90;;;;;;5093155;28;20199;-66
2022/01/27 08:51:50;;;;;;;44.00;19.53;;;7.10;99.90;;;;;;5092857;28;20654;-65
2022/01/27 08:54:16;;;;;;;46.17;22.73;;;7.20;99.90;;;;;;5090482;28;20215;-65
2022/01/27 08:56:42;;;;;;;41.83;19.67;;;7.30;99.90;;;;;;5093838;28;20218;-65
2022/01/27 08:59:08;;;;;;;43.17;19.50;;;7.50;99.90;;;;;;5092265;28;20185;-70
2022/01/27 09:01:34;;;;;;;44.70;19.43;;;7.60;99.90;;;;;;5094424;28;20238;-66
2022/01/27 09:04:00;;;;;;;45.87;19.90;;;7.60;99.90;;;;;;5091279;28;20605;-65
2022/01/27 09:06:28;;;;;;;49.00;23.00;;;7.50;99.90;;;;;;5093447;28;20204;-65
2022/01/27 09:08:55;;;;;;;40.70;19.20;;;7.40;99.90;;;;;;5092796;28;20183;-66
2022/01/27 09:11:21;;;;;;;44.53;19.60;;;7.40;99.90;;;;;;5093859;28;20181;-65
2022/01/27 09:13:47;;;;;;;38.70;19.27;;;7.70;99.90;;;;;;5125562;27;20188;-70
2022/01/27 09:16:13;;;;;;;44.07;20.43;;;7.70;99.90;;;;;;5093473;28;20241;-65
2022/01/27 09:18:39;;;;;;;39.33;19.10;;;7.60;99.90;;;;;;5088028;28;20541;-65
2022/01/27 09:21:14;;;;;;;42.70;20.47;;;7.70;99.90;;;;;;5125995;27;20181;-65
2022/01/27 09:23:40;;;;;;;47.33;19.57;;;7.80;99.90;;;;;;5093258;28;20184;-65
2022/01/27 09:26:10;;;;;;;41.77;18.20;;;7.90;99.90;;;;;;5093261;28;20642;-66
2022/01/27 09:28:35;;;;;;;52.23;19.40;;;8.00;99.90;;;;;;5080402;28;20191;-65
2022/01/27 09:31:01;;;;;;;40.70;19.07;;;7.90;99.90;;;;;;5100092;28;20176;-65
2022/01/27 09:33:28;;;;;;;42.10;19.03;;;7.80;99.90;;;;;;5093182;28;20264;-65
2022/01/27 09:35:54;;;;;;;40.47;18.73;;;7.80;99.90;;;;;;5091736;28;20223;-66
2022/01/27 09:38:20;;;;;;;46.93;19.10;;;7.80;99.90;;;;;;5080301;28;20530;-65
2022/01/27 09:40:49;;;;;;;44.83;18.90;;;7.80;99.90;;;;;;5092674;28;20184;-65
2022/01/27 09:43:15;;;;;;;35.33;18.53;;;7.80;99.90;;;;;;5091508;28;20245;-65
2022/01/27 09:45:42;;;;;;;43.70;18.83;;;7.80;99.90;;;;;;5108683;28;20654;-66
2022/01/27 09:48:13;;;;;;;44.97;19.17;;;7.90;99.90;;;;;;5125502;27;20223;-65
2022/01/27 09:53:25;;;;;;;34.70;18.87;;;7.90;99.90;;;;;;5073599;28;20174;-64
2022/01/27 09:55:51;;;;;;;43.83;18.60;;;7.90;99.90;;;;;;5125416;27;20201;-63
2022/01/27 09:58:17;;;;;;;37.83;20.07;;;8.00;99.90;;;;;;5084219;28;20227;-64
2022/01/27 10:00:42;;;;;;;38.03;18.23;;;8.10;99.90;;;;;;5124201;27;20189;-66
2022/01/27 10:03:09;;;;;;;41.43;19.90;;;8.20;99.90;;;;;;5108276;28;20181;-64
2022/01/27 10:05:36;;;;;;;38.97;18.07;;;8.30;99.90;;;;;;5084013;28;20208;-64
2022/01/27 10:08:12;;;;;;;37.77;19.50;;;8.20;99.90;;;;;;5081239;28;20181;-64
2022/01/27 10:10:50;;;;;;;43.03;19.60;;;8.20;99.90;;;;;;5093037;28;20178;-64
2022/01/27 10:13:32;;;;;;;45.07;18.70;;;8.40;99.90;;;;;;5092299;28;20204;-64
2022/01/27 10:15:58;;;;;;;36.53;18.27;;;8.20;99.90;;;;;;5092355;28;20200;-64
2022/01/27 10:18:26;;;;;;;42.20;17.33;;;8.20;99.90;;;;;;5092207;28;20192;-65
2022/01/27 10:21:01;;;;;;;36.73;17.77;;;8.10;99.90;;;;;;5081575;28;20184;-64
2022/01/27 10:23:31;;;;;;;38.73;17.63;;;8.20;99.90;;;;;;5076113;28;20173;-64
2022/01/27 10:26:07;;;;;;;35.73;17.73;;;8.30;99.90;;;;;;5076728;28;20233;-65
2022/01/27 10:31:31;;;;;;;41.17;17.60;;;8.40;99.90;;;;;;5076986;28;20203;-65
2022/01/27 10:34:05;;;;;;;32.90;17.63;;;8.30;99.90;;;;;;5091082;28;20205;-66
2022/01/27 10:36:39;;;;;;;37.23;18.47;;;8.30;99.90;;;;;;5125046;28;20214;-65
2022/01/27 10:39:11;;;;;;;44.30;16.80;;;8.50;99.90;;;;;;5073981;28;20192;-65
2022/01/27 10:41:39;;;;;;;38.80;18.97;;;8.60;99.90;;;;;;5089681;28;20181;-65
2022/01/27 10:44:15;;;;;;;30.03;15.43;;;8.50;99.90;;;;;;5091767;28;20192;-66
2022/01/27 10:46:59;;;;;;;27.67;15.70;;;8.60;99.90;;;;;;5092473;28;20168;-65
2022/01/27 10:49:29;;;;;;;39.80;16.37;;;8.70;99.90;;;;;;5091398;28;20184;-64
2022/01/27 10:51:56;;;;;;;30.03;16.20;;;8.60;99.90;;;;;;5107830;28;20664;-64
2022/01/27 10:54:38;;;;;;;35.60;16.37;;;8.70;99.90;;;;;;5092066;28;20291;-64
2022/01/27 10:57:10;;;;;;;30.77;16.07;;;8.70;99.90;;;;;;5091296;28;20228;-64
2022/01/27 10:59:37;;;;;;;29.13;14.17;;;8.70;99.90;;;;;;5091815;28;20165;-63
2022/01/27 11:02:13;;;;;;;31.23;14.63;;;8.70;99.90;;;;;;5091092;28;20212;-66
2022/01/27 11:04:40;;;;;;;29.07;14.43;;;8.70;99.90;;;;;;5075986;28;20172;-64
2022/01/27 11:07:11;;;;;;;25.90;15.40;;;8.70;99.90;;;;;;5092060;28;20180;-66
2022/01/27 11:09:41;;;;;;;36.23;16.47;;;8.70;99.90;;;;;;5087486;28;20181;-65
2022/01/27 11:12:11;;;;;;;31.10;15.53;;;8.80;99.90;;;;;;5083044;28;20195;-65
2022/01/27 11:14:38;;;;;;;21.83;14.97;;;8.80;99.90;;;;;;5090872;28;20207;-66
2022/01/27 11:17:09;;;;;;;32.47;15.37;;;8.90;99.90;;;;;;5091753;28;20200;-66
2022/01/27 11:22:22;;;;;;;33.33;16.47;;;9.00;99.90;;;;;;5091721;28;20192;-65
2022/01/27 11:25:08;;;;;;;23.83;14.53;;;9.00;99.90;;;;;;5091552;28;20191;-65
2022/01/27 11:27:37;;;;;;;35.40;17.37;;;9.00;99.90;;;;;;5091494;28;20184;-65
2022/01/27 11:30:06;;;;;;;30.13;14.90;;;9.00;99.90;;;;;;5091305;28;20249;-65
2022/01/27 11:32:39;;;;;;;35.97;15.03;;;8.90;99.90;;;;;;5091982;28;20176;-65
2022/01/27 11:35:25;;;;;;;24.30;13.50;;;9.00;99.90;;;;;;5095425;28;20262;-65
2022/01/27 11:37:53;;;;;;;31.87;14.47;;;9.00;99.90;;;;;;5095432;28;20668;-65
2022/01/27 11:40:20;;;;;;;32.50;15.03;;;8.90;99.90;;;;;;5094199;28;20642;-65
2022/01/27 11:42:55;;;;;;;25.87;13.97;;;8.90;99.90;;;;;;5094901;28;20173;-65
2022/01/27 11:45:21;;;;;;;33.13;14.63;;;8.80;99.90;;;;;;5102100;28;20191;-66
2022/01/27 11:48:15;;;;;;;26.60;13.70;;;8.90;99.90;;;;;;5095092;28;20264;-68
2022/01/27 11:51:09;;;;;;;31.77;13.83;;;9.00;99.90;;;;;;5074947;28;20710;-66
2022/01/27 11:53:48;;;;;;;23.93;12.97;;;9.00;99.90;;;;;;5095760;28;20249;-65
2022/01/27 11:56:23;;;;;;;32.80;15.50;;;9.00;99.90;;;;;;5092361;28;20191;-66
2022/01/27 11:58:50;;;;;;;30.50;14.50;;;9.00;99.90;;;;;;5096709;28;21265;-65
2022/01/27 12:01:56;;;;;;;22.97;12.97;;;8.80;99.90;;;;;;5100949;28;20188;-65
2022/01/27 12:04:25;;;;;;;24.73;12.47;;;8.80;99.90;;;;;;5089295;28;20199;-64
2022/01/27 12:06:51;;;;;;;27.20;13.37;;;9.00;99.90;;;;;;5110590;28;20219;-66
2022/01/27 12:09:17;;;;;;;20.33;12.83;;;9.10;99.90;;;;;;5094295;28;20211;-66
2022/01/27 12:12:04;;;;;;;25.83;11.47;;;9.10;99.90;;;;;;5102635;28;20199;-67
2022/01/27 12:14:31;;;;;;;22.63;11.40;;;9.30;99.90;;;;;;5095024;28;20295;-64
2022/01/27 12:17:09;;;;;;;22.90;11.83;;;9.30;99.90;;;;;;5093803;28;20188;-65
2022/01/27 12:19:57;;;;;;;22.87;11.67;;;9.30;99.90;;;;;;5094984;28;20303;-65
2022/01/27 12:22:28;;;;;;;18.63;11.57;;;9.10;99.90;;;;;;5094402;28;20177;-66
2022/01/27 12:24:56;;;;;;;18.60;11.07;;;9.10;99.90;;;;;;5098634;28;20668;-64
2022/01/27 12:27:23;;;;;;;20.33;11.33;;;9.10;99.90;;;;;;5094431;28;20207;-64
2022/01/27 12:29:51;;;;;;;23.07;13.03;;;9.10;99.90;;;;;;5078262;28;20215;-64
2022/01/27 12:32:17;;;;;;;24.00;10.80;;;9.20;99.90;;;;;;5110001;28;20281;-66
2022/01/27 12:35:04;;;;;;;24.83;11.27;;;9.30;99.90;;;;;;5094059;28;20661;-63
2022/01/27 12:37:39;;;;;;;17.77;10.33;;;9.30;99.90;;;;;;5093897;28;20574;-65
2022/01/27 12:40:15;;;;;;;21.07;11.83;;;9.30;99.90;;;;;;5093822;28;20664;-66
2022/01/27 12:42:57;;;;;;;21.73;11.67;;;9.30;99.90;;;;;;5087390;28;20563;-65
2022/01/27 12:45:30;;;;;;;15.43;11.17;;;9.40;99.90;;;;;;5084309;28;20249;-68
2022/01/27 12:48:04;;;;;;;19.23;12.03;;;9.40;99.90;;;;;;5074610;28;20158;-66
2022/01/27 12:50:30;;;;;;;21.73;12.47;;;9.50;99.90;;;;;;5118594;27;20215;-65
2022/01/27 12:53:01;;;;;;;19.53;11.73;;;9.40;99.90;;;;;;5081695;28;20205;-66
2022/01/27 12:55:35;;;;;;;20.23;12.00;;;9.40;99.90;;;;;;5089604;28;20283;-65
2022/01/27 12:58:10;;;;;;;22.33;13.03;;;9.40;99.90;;;;;;5091090;28;20271;-66
2022/01/27 13:00:42;;;;;;;17.63;10.83;;;9.50;99.90;;;;;;5092597;28;20176;-66
2022/01/27 13:03:08;;;;;;;21.93;12.43;;;9.60;99.90;;;;;;5094160;28;20189;-68
2022/01/27 13:05:36;;;;;;;22.00;10.87;;;9.50;99.90;;;;;;5126780;27;20210;-67
2022/01/27 13:08:09;;;;;;;20.43;10.93;;;9.50;99.90;;;;;;5094126;28;20181;-66
2022/01/27 13:10:36;;;;;;;17.70;10.70;;;9.60;99.90;;;;;;5092829;28;20180;-66
2022/01/27 13:13:15;;;;;;;17.57;10.00;;;9.60;99.90;;;;;;5091802;28;20192;-65
2022/01/27 13:15:41;;;;;;;14.20;9.83;;;9.70;99.90;;;;;;5093929;28;20204;-68
2022/01/27 13:18:29;;;;;;;20.27;10.00;;;9.70;99.90;;;;;;5089190;28;20180;-66
2022/01/27 13:20:57;;;;;;;14.83;9.70;;;9.60;99.90;;;;;;5083833;28;20178;-66
2022/01/27 13:23:29;;;;;;;19.77;10.73;;;9.60;99.90;;;;;;5082610;28;20195;-66
2022/01/27 13:25:59;;;;;;;17.57;10.23;;;9.70;99.90;;;;;;5092162;28;20187;-66
2022/01/27 13:28:35;;;;;;;14.97;9.80;;;9.60;99.90;;;;;;5093158;28;20267;-66